Terminal Aerodrome Forecast
Issued by NWS Brownsville, TX

Home | Current Version | Previous Version | Text Only | Print | Product List | Glossary On
Versions: 1 2 3 4 5 6 7 8 9 10 11 12 13 14 15 16 17 18 19 20
000
FTUS44 KBRO 291400 AAA
TAFHRL
TAF AMD
KHRL 291407Z 2914/3012 32005KT 6SM BR OVC003
     FM291500 07007KT P6SM SCT025 SCT050
     FM300000 VRB05KT P6SM SCT015 BKN040
     FM300300 VRB03KT 5SM BR BKN015=

USA.gov is the U.S. government's official web portal to all federal, state and local government web resources and services.